sensor_id;sensor_type;location;lat;lon;timestamp;pressure;altitude;pressure_sealevel;temperature;humidity
54870;BME280;40756;-37.950;145.008;2023-10-31T00:00:09;101614.96;;;13.57;39.88
54870;BME280;40756;-37.950;145.008;2023-10-31T00:02:39;101619.91;;;14.33;39.59
54870;BME280;40756;-37.950;145.008;2023-10-31T00:05:08;101628.52;;;13.57;39.98
54870;BME280;40756;-37.950;145.008;2023-10-31T00:07:38;101638.56;;;13.94;40.32
54870;BME280;40756;-37.950;145.008;2023-10-31T00:10:08;101635.60;;;13.81;39.89
54870;BME280;40756;-37.950;145.008;2023-10-31T00:12:39;101640.41;;;14.94;39.23
54870;BME280;40756;-37.950;145.008;2023-10-31T00:15:09;101643.64;;;14.09;39.48
54870;BME280;40756;-37.950;145.008;2023-10-31T00:17:38;101648.19;;;13.61;39.57
54870;BME280;40756;-37.950;145.008;2023-10-31T00:20:08;101647.98;;;13.41;39.65
54870;BME280;40756;-37.950;145.008;2023-10-31T00:22:38;101650.05;;;13.61;38.77
54870;BME280;40756;-37.950;145.008;2023-10-31T00:25:08;101654.89;;;13.91;38.32
54870;BME280;40756;-37.950;145.008;2023-10-31T00:27:37;101654.83;;;14.28;38.29
54870;BME280;40756;-37.950;145.008;2023-10-31T00:30:08;101654.59;;;14.55;38.33
54870;BME280;40756;-37.950;145.008;2023-10-31T00:32:37;101666.95;;;14.20;37.51
54870;BME280;40756;-37.950;145.008;2023-10-31T00:35:07;101663.16;;;13.36;37.91
54870;BME280;40756;-37.950;145.008;2023-10-31T00:37:37;101667.51;;;13.94;39.07
54870;BME280;40756;-37.950;145.008;2023-10-31T00:40:07;101671.06;;;14.32;38.04
54870;BME280;40756;-37.950;145.008;2023-10-31T00:42:37;101666.55;;;14.13;36.92
54870;BME280;40756;-37.950;145.008;2023-10-31T00:45:07;101668.48;;;14.87;37.57
54870;BME280;40756;-37.950;145.008;2023-10-31T00:47:37;101672.12;;;13.88;37.61
54870;BME280;40756;-37.950;145.008;2023-10-31T00:50:07;101669.68;;;14.68;37.91
54870;BME280;40756;-37.950;145.008;2023-10-31T00:52:37;101676.27;;;13.92;38.44
54870;BME280;40756;-37.950;145.008;2023-10-31T00:55:07;101675.83;;;14.62;37.47
54870;BME280;40756;-37.950;145.008;2023-10-31T00:57:36;101681.87;;;14.17;39.11
54870;BME280;40756;-37.950;145.008;2023-10-31T01:00:07;101685.89;;;13.88;39.35
54870;BME280;40756;-37.950;145.008;2023-10-31T01:02:36;101682.47;;;14.13;39.02
54870;BME280;40756;-37.950;145.008;2023-10-31T01:05:07;101675.84;;;14.91;39.06
54870;BME280;40756;-37.950;145.008;2023-10-31T01:07:36;101671.74;;;14.75;38.98
54870;BME280;40756;-37.950;145.008;2023-10-31T01:10:06;101676.44;;;15.15;37.81
54870;BME280;40756;-37.950;145.008;2023-10-31T01:12:36;101684.61;;;14.08;37.83
54870;BME280;40756;-37.950;145.008;2023-10-31T01:15:07;101683.06;;;14.71;38.66
54870;BME280;40756;-37.950;145.008;2023-10-31T01:17:36;101686.79;;;14.12;37.72
54870;BME280;40756;-37.950;145.008;2023-10-31T01:20:07;101693.02;;;14.76;36.94
54870;BME280;40756;-37.950;145.008;2023-10-31T01:22:36;101692.78;;;14.87;37.34
54870;BME280;40756;-37.950;145.008;2023-10-31T01:25:06;101692.30;;;15.83;36.35
54870;BME280;40756;-37.950;145.008;2023-10-31T01:27:36;101693.09;;;15.28;37.41
54870;BME280;40756;-37.950;145.008;2023-10-31T01:30:07;101687.84;;;16.17;36.01
54870;BME280;40756;-37.950;145.008;2023-10-31T01:32:36;101693.09;;;15.47;37.24
54870;BME280;40756;-37.950;145.008;2023-10-31T01:35:06;101690.28;;;16.19;34.62
54870;BME280;40756;-37.950;145.008;2023-10-31T01:37:36;101689.27;;;15.93;35.96
54870;BME280;40756;-37.950;145.008;2023-10-31T01:40:07;101691.82;;;16.46;35.49
54870;BME280;40756;-37.950;145.008;2023-10-31T01:42:36;101693.67;;;16.79;33.59
54870;BME280;40756;-37.950;145.008;2023-10-31T01:45:07;101695.28;;;16.40;34.21
54870;BME280;40756;-37.950;145.008;2023-10-31T01:47:36;101697.04;;;16.47;33.15
54870;BME280;40756;-37.950;145.008;2023-10-31T01:50:08;101697.06;;;16.71;32.06
54870;BME280;40756;-37.950;145.008;2023-10-31T01:52:38;101689.92;;;16.84;33.33
54870;BME280;40756;-37.950;145.008;2023-10-31T01:55:08;101696.46;;;16.13;32.81
54870;BME280;40756;-37.950;145.008;2023-10-31T01:57:38;101704.29;;;15.88;33.07
54870;BME280;40756;-37.950;145.008;2023-10-31T02:00:11;101705.77;;;16.08;33.37
54870;BME280;40756;-37.950;145.008;2023-10-31T02:02:42;101704.97;;;16.33;33.33
54870;BME280;40756;-37.950;145.008;2023-10-31T02:05:12;101702.02;;;17.43;33.67
54870;BME280;40756;-37.950;145.008;2023-10-31T02:07:42;101703.35;;;16.28;34.03
54870;BME280;40756;-37.950;145.008;2023-10-31T02:10:13;101702.67;;;15.79;33.52
54870;BME280;40756;-37.950;145.008;2023-10-31T02:12:43;101708.68;;;15.91;34.68
54870;BME280;40756;-37.950;145.008;2023-10-31T02:15:13;101716.87;;;14.73;35.55
54870;BME280;40756;-37.950;145.008;2023-10-31T02:17:43;101712.79;;;15.09;35.25
54870;BME280;40756;-37.950;145.008;2023-10-31T02:20:13;101712.94;;;15.56;35.97
54870;BME280;40756;-37.950;145.008;2023-10-31T02:22:42;101718.61;;;14.89;37.20
54870;BME280;40756;-37.950;145.008;2023-10-31T02:25:18;101719.30;;;15.53;36.54
54870;BME280;40756;-37.950;145.008;2023-10-31T02:27:48;101709.58;;;15.50;36.33
54870;BME280;40756;-37.950;145.008;2023-10-31T02:30:17;101705.78;;;15.10;36.86
54870;BME280;40756;-37.950;145.008;2023-10-31T02:32:47;101706.26;;;15.80;36.25
54870;BME280;40756;-37.950;145.008;2023-10-31T02:35:18;101703.56;;;16.04;36.09
54870;BME280;40756;-37.950;145.008;2023-10-31T02:37:48;101696.87;;;17.10;34.17
54870;BME280;40756;-37.950;145.008;2023-10-31T02:40:17;101703.25;;;16.78;32.78
54870;BME280;40756;-37.950;145.008;2023-10-31T02:42:47;101708.69;;;16.67;33.09
54870;BME280;40756;-37.950;145.008;2023-10-31T02:45:16;101706.11;;;17.35;33.21
54870;BME280;40756;-37.950;145.008;2023-10-31T02:47:46;101702.93;;;16.93;32.33
54870;BME280;40756;-37.950;145.008;2023-10-31T02:50:15;101703.58;;;17.89;32.59
54870;BME280;40756;-37.950;145.008;2023-10-31T02:52:45;101713.02;;;17.77;30.98
54870;BME280;40756;-37.950;145.008;2023-10-31T02:55:15;101707.64;;;17.02;32.34
54870;BME280;40756;-37.950;145.008;2023-10-31T02:57:44;101705.74;;;18.37;31.59
54870;BME280;40756;-37.950;145.008;2023-10-31T03:00:14;101710.64;;;17.14;32.52
54870;BME280;40756;-37.950;145.008;2023-10-31T03:02:44;101714.47;;;17.47;32.11
54870;BME280;40756;-37.950;145.008;2023-10-31T03:05:13;101720.85;;;16.41;34.70
54870;BME280;40756;-37.950;145.008;2023-10-31T03:07:43;101723.18;;;14.33;38.05
54870;BME280;40756;-37.950;145.008;2023-10-31T03:10:13;101727.33;;;14.81;37.57
54870;BME280;40756;-37.950;145.008;2023-10-31T03:12:42;101724.29;;;15.57;37.30
54870;BME280;40756;-37.950;145.008;2023-10-31T03:15:13;101723.88;;;16.27;37.02
54870;BME280;40756;-37.950;145.008;2023-10-31T03:17:43;101723.88;;;16.29;36.79
54870;BME280;40756;-37.950;145.008;2023-10-31T03:20:12;101711.02;;;17.70;34.20
54870;BME280;40756;-37.950;145.008;2023-10-31T03:22:41;101717.40;;;17.30;34.75
54870;BME280;40756;-37.950;145.008;2023-10-31T03:25:11;101724.20;;;17.36;35.44
54870;BME280;40756;-37.950;145.008;2023-10-31T03:27:41;101745.17;;;15.60;36.85
54870;BME280;40756;-37.950;145.008;2023-10-31T03:30:11;101743.02;;;15.16;41.07
54870;BME280;40756;-37.950;145.008;2023-10-31T03:32:41;101747.37;;;15.70;40.76
54870;BME280;40756;-37.950;145.008;2023-10-31T03:35:10;101744.21;;;16.31;41.33
54870;BME280;40756;-37.950;145.008;2023-10-31T03:37:40;101747.30;;;16.22;41.87
54870;BME280;40756;-37.950;145.008;2023-10-31T03:40:10;101742.79;;;16.47;40.88
54870;BME280;40756;-37.950;145.008;2023-10-31T03:42:40;101733.19;;;17.48;38.89
54870;BME280;40756;-37.950;145.008;2023-10-31T03:45:09;101732.03;;;17.47;38.69
54870;BME280;40756;-37.950;145.008;2023-10-31T03:47:39;101738.66;;;17.33;37.45
54870;BME280;40756;-37.950;145.008;2023-10-31T03:50:10;101742.04;;;15.87;39.41
54870;BME280;40756;-37.950;145.008;2023-10-31T03:52:39;101735.21;;;16.68;37.39
54870;BME280;40756;-37.950;145.008;2023-10-31T03:55:09;101738.91;;;15.25;39.34
54870;BME280;40756;-37.950;145.008;2023-10-31T03:57:39;101725.21;;;16.41;38.96
54870;BME280;40756;-37.950;145.008;2023-10-31T04:00:09;101724.12;;;16.54;38.04
54870;BME280;40756;-37.950;145.008;2023-10-31T04:02:40;101731.60;;;18.00;36.90
54870;BME280;40756;-37.950;145.008;2023-10-31T04:05:10;101745.92;;;16.71;38.20
54870;BME280;40756;-37.950;145.008;2023-10-31T04:07:40;101747.63;;;15.75;38.80
54870;BME280;40756;-37.950;145.008;2023-10-31T04:10:10;101756.25;;;15.93;38.33
54870;BME280;40756;-37.950;145.008;2023-10-31T04:12:39;101743.90;;;16.54;39.39
54870;BME280;40756;-37.950;145.008;2023-10-31T04:15:09;101737.10;;;16.84;38.03
54870;BME280;40756;-37.950;145.008;2023-10-31T04:17:40;101734.68;;;17.06;37.02
54870;BME280;40756;-37.950;145.008;2023-10-31T04:20:10;101734.66;;;17.38;36.46
54870;BME280;40756;-37.950;145.008;2023-10-31T04:22:39;101744.22;;;16.88;36.62
54870;BME280;40756;-37.950;145.008;2023-10-31T04:25:09;101745.49;;;17.45;36.41
54870;BME280;40756;-37.950;145.008;2023-10-31T04:27:38;101742.90;;;16.92;37.50
54870;BME280;40756;-37.950;145.008;2023-10-31T04:30:09;101740.48;;;18.43;35.59
54870;BME280;40756;-37.950;145.008;2023-10-31T04:32:38;101741.22;;;16.89;35.61
54870;BME280;40756;-37.950;145.008;2023-10-31T04:35:08;101749.76;;;16.46;37.16
54870;BME280;40756;-37.950;145.008;2023-10-31T04:37:37;101750.59;;;14.86;38.43
54870;BME280;40756;-37.950;145.008;2023-10-31T04:40:08;101753.46;;;15.51;38.50
54870;BME280;40756;-37.950;145.008;2023-10-31T04:42:40;101755.04;;;15.58;37.61
54870;BME280;40756;-37.950;145.008;2023-10-31T04:45:10;101757.43;;;15.86;37.15
54870;BME280;40756;-37.950;145.008;2023-10-31T04:47:40;101757.39;;;15.82;37.64
54870;BME280;40756;-37.950;145.008;2023-10-31T04:50:10;101755.00;;;17.11;36.27
54870;BME280;40756;-37.950;145.008;2023-10-31T04:52:40;101754.61;;;16.97;35.30
54870;BME280;40756;-37.950;145.008;2023-10-31T04:55:09;101750.60;;;18.14;35.40
54870;BME280;40756;-37.950;145.008;2023-10-31T04:57:39;101759.60;;;16.31;34.74
54870;BME280;40756;-37.950;145.008;2023-10-31T05:00:09;101753.94;;;17.20;34.58
54870;BME280;40756;-37.950;145.008;2023-10-31T05:02:39;101751.71;;;17.58;34.80
54870;BME280;40756;-37.950;145.008;2023-10-31T05:05:08;101754.97;;;17.84;34.82
54870;BME280;40756;-37.950;145.008;2023-10-31T05:07:38;101755.51;;;17.51;32.84
54870;BME280;40756;-37.950;145.008;2023-10-31T05:10:08;101746.94;;;17.47;31.93
54870;BME280;40756;-37.950;145.008;2023-10-31T05:12:38;101747.50;;;16.66;33.53
54870;BME280;40756;-37.950;145.008;2023-10-31T05:15:08;101752.04;;;17.52;35.23
54870;BME280;40756;-37.950;145.008;2023-10-31T05:17:38;101750.80;;;17.00;33.63
54870;BME280;40756;-37.950;145.008;2023-10-31T05:20:09;101750.43;;;17.05;33.89
54870;BME280;40756;-37.950;145.008;2023-10-31T05:22:40;101751.47;;;17.25;32.60
54870;BME280;40756;-37.950;145.008;2023-10-31T05:25:10;101748.88;;;18.15;32.65
54870;BME280;40756;-37.950;145.008;2023-10-31T05:27:40;101747.30;;;16.61;33.96
54870;BME280;40756;-37.950;145.008;2023-10-31T05:30:10;101750.31;;;17.18;34.26
54870;BME280;40756;-37.950;145.008;2023-10-31T05:32:40;101754.32;;;17.73;32.62
54870;BME280;40756;-37.950;145.008;2023-10-31T05:35:10;101753.08;;;16.72;34.71
54870;BME280;40756;-37.950;145.008;2023-10-31T05:37:40;101766.57;;;17.05;35.25
54870;BME280;40756;-37.950;145.008;2023-10-31T05:40:10;101765.98;;;15.69;39.32
54870;BME280;40756;-37.950;145.008;2023-10-31T05:42:40;101760.49;;;16.65;38.16
54870;BME280;40756;-37.950;145.008;2023-10-31T05:45:10;101770.78;;;16.36;40.13
54870;BME280;40756;-37.950;145.008;2023-10-31T05:47:39;101765.19;;;16.79;40.18
54870;BME280;40756;-37.950;145.008;2023-10-31T05:50:09;101772.72;;;15.19;41.72
54870;BME280;40756;-37.950;145.008;2023-10-31T05:52:39;101776.19;;;14.03;43.44
54870;BME280;40756;-37.950;145.008;2023-10-31T05:55:09;101780.65;;;16.24;41.08
54870;BME280;40756;-37.950;145.008;2023-10-31T05:57:38;101781.96;;;15.81;40.77
54870;BME280;40756;-37.950;145.008;2023-10-31T06:00:09;101778.33;;;15.97;38.60
54870;BME280;40756;-37.950;145.008;2023-10-31T06:02:39;101775.33;;;15.71;39.81
54870;BME280;40756;-37.950;145.008;2023-10-31T06:05:09;101778.83;;;14.55;42.28
54870;BME280;40756;-37.950;145.008;2023-10-31T06:07:38;101780.52;;;14.86;42.25
54870;BME280;40756;-37.950;145.008;2023-10-31T06:10:08;101778.18;;;15.44;40.49
54870;BME280;40756;-37.950;145.008;2023-10-31T06:12:38;101773.46;;;14.82;41.08
54870;BME280;40756;-37.950;145.008;2023-10-31T06:15:09;101778.22;;;15.69;40.69
54870;BME280;40756;-37.950;145.008;2023-10-31T06:17:39;101777.17;;;15.12;41.21
54870;BME280;40756;-37.950;145.008;2023-10-31T06:20:09;101779.87;;;15.02;41.41
54870;BME280;40756;-37.950;145.008;2023-10-31T06:22:39;101787.28;;;15.64;41.15
54870;BME280;40756;-37.950;145.008;2023-10-31T06:25:09;101791.15;;;15.28;39.16
54870;BME280;40756;-37.950;145.008;2023-10-31T06:27:38;101794.19;;;15.84;39.18
54870;BME280;40756;-37.950;145.008;2023-10-31T06:30:09;101794.66;;;14.67;41.77
54870;BME280;40756;-37.950;145.008;2023-10-31T06:32:41;101798.11;;;15.26;41.14
54870;BME280;40756;-37.950;145.008;2023-10-31T06:35:10;101799.22;;;14.76;42.03
54870;BME280;40756;-37.950;145.008;2023-10-31T06:37:40;101800.32;;;15.47;41.20
54870;BME280;40756;-37.950;145.008;2023-10-31T06:40:10;101807.71;;;15.82;40.70
54870;BME280;40756;-37.950;145.008;2023-10-31T06:42:40;101808.63;;;15.22;39.99
54870;BME280;40756;-37.950;145.008;2023-10-31T06:45:10;101807.28;;;15.43;39.77
54870;BME280;40756;-37.950;145.008;2023-10-31T06:47:39;101799.98;;;15.34;40.34
54870;BME280;40756;-37.950;145.008;2023-10-31T06:50:10;101803.33;;;15.82;39.15
54870;BME280;40756;-37.950;145.008;2023-10-31T06:52:39;101801.79;;;15.38;40.24
54870;BME280;40756;-37.950;145.008;2023-10-31T06:55:09;101807.03;;;15.36;41.29
54870;BME280;40756;-37.950;145.008;2023-10-31T06:57:39;101800.90;;;15.38;40.12
54870;BME280;40756;-37.950;145.008;2023-10-31T07:00:10;101808.93;;;14.94;40.43
54870;BME280;40756;-37.950;145.008;2023-10-31T07:02:40;101812.81;;;15.36;40.60
54870;BME280;40756;-37.950;145.008;2023-10-31T07:05:09;101822.99;;;14.59;40.07
54870;BME280;40756;-37.950;145.008;2023-10-31T07:07:39;101827.19;;;14.87;40.47
54870;BME280;40756;-37.950;145.008;2023-10-31T07:10:09;101836.63;;;14.84;41.85
54870;BME280;40756;-37.950;145.008;2023-10-31T07:12:39;101833.78;;;14.16;42.60
54870;BME280;40756;-37.950;145.008;2023-10-31T07:15:09;101838.06;;;14.91;43.16
54870;BME280;40756;-37.950;145.008;2023-10-31T07:17:40;101828.16;;;15.08;43.21
54870;BME280;40756;-37.950;145.008;2023-10-31T07:20:09;101829.43;;;13.76;43.43
54870;BME280;40756;-37.950;145.008;2023-10-31T07:22:39;101835.32;;;14.15;43.05
54870;BME280;40756;-37.950;145.008;2023-10-31T07:25:09;101840.22;;;14.40;43.80
54870;BME280;40756;-37.950;145.008;2023-10-31T07:27:39;101849.46;;;14.53;43.71
54870;BME280;40756;-37.950;145.008;2023-10-31T07:30:09;101859.77;;;13.57;44.10
54870;BME280;40756;-37.950;145.008;2023-10-31T07:32:39;101860.85;;;14.37;43.72
54870;BME280;40756;-37.950;145.008;2023-10-31T07:35:09;101864.72;;;13.11;47.42
54870;BME280;40756;-37.950;145.008;2023-10-31T07:37:38;101864.98;;;12.12;47.57
54870;BME280;40756;-37.950;145.008;2023-10-31T07:40:09;101864.15;;;13.35;45.77
54870;BME280;40756;-37.950;145.008;2023-10-31T07:42:39;101857.15;;;13.95;44.38
54870;BME280;40756;-37.950;145.008;2023-10-31T07:45:09;101857.51;;;13.99;43.56
54870;BME280;40756;-37.950;145.008;2023-10-31T07:47:39;101855.58;;;14.13;43.61
54870;BME280;40756;-37.950;145.008;2023-10-31T07:50:09;101863.16;;;14.07;43.05
54870;BME280;40756;-37.950;145.008;2023-10-31T07:52:39;101875.20;;;14.02;43.61
54870;BME280;40756;-37.950;145.008;2023-10-31T07:55:09;101879.96;;;14.11;43.27
54870;BME280;40756;-37.950;145.008;2023-10-31T07:57:38;101882.29;;;13.79;43.97
54870;BME280;40756;-37.950;145.008;2023-10-31T08:00:12;101884.15;;;13.78;43.79
54870;BME280;40756;-37.950;145.008;2023-10-31T08:02:41;101891.18;;;13.03;44.67
54870;BME280;40756;-37.950;145.008;2023-10-31T08:05:11;101892.95;;;13.73;44.81
54870;BME280;40756;-37.950;145.008;2023-10-31T08:07:41;101896.67;;;14.25;43.59
54870;BME280;40756;-37.950;145.008;2023-10-31T08:10:11;101896.83;;;13.23;44.60
54870;BME280;40756;-37.950;145.008;2023-10-31T08:12:41;101902.21;;;13.67;43.77
54870;BME280;40756;-37.950;145.008;2023-10-31T08:15:10;101915.14;;;13.12;44.40
54870;BME280;40756;-37.950;145.008;2023-10-31T08:17:40;101912.68;;;13.53;43.08
54870;BME280;40756;-37.950;145.008;2023-10-31T08:20:11;101910.92;;;13.28;42.61
54870;BME280;40756;-37.950;145.008;2023-10-31T08:22:41;101914.00;;;13.54;42.99
54870;BME280;40756;-37.950;145.008;2023-10-31T08:25:11;101911.87;;;12.22;44.61
54870;BME280;40756;-37.950;145.008;2023-10-31T08:27:40;101913.12;;;13.78;43.73
54870;BME280;40756;-37.950;145.008;2023-10-31T08:30:11;101916.75;;;12.75;44.98
54870;BME280;40756;-37.950;145.008;2023-10-31T08:32:40;101923.10;;;13.27;43.80
54870;BME280;40756;-37.950;145.008;2023-10-31T08:35:10;101930.85;;;12.23;45.62
54870;BME280;40756;-37.950;145.008;2023-10-31T08:37:39;101936.38;;;12.52;45.48
54870;BME280;40756;-37.950;145.008;2023-10-31T08:40:10;101939.60;;;12.68;47.13
54870;BME280;40756;-37.950;145.008;2023-10-31T08:42:40;101942.74;;;12.41;49.96
54870;BME280;40756;-37.950;145.008;2023-10-31T08:45:10;101946.72;;;12.13;51.36
54870;BME280;40756;-37.950;145.008;2023-10-31T08:47:39;101950.97;;;12.44;51.16
54870;BME280;40756;-37.950;145.008;2023-10-31T08:50:09;101956.69;;;13.41;49.95
54870;BME280;40756;-37.950;145.008;2023-10-31T08:52:39;101963.59;;;12.81;49.80
54870;BME280;40756;-37.950;145.008;2023-10-31T08:55:09;101967.28;;;12.58;48.91
54870;BME280;40756;-37.950;145.008;2023-10-31T08:57:38;101968.31;;;13.64;46.41
54870;BME280;40756;-37.950;145.008;2023-10-31T09:00:09;101964.63;;;12.99;47.94
54870;BME280;40756;-37.950;145.008;2023-10-31T09:02:38;101967.34;;;12.92;47.33
54870;BME280;40756;-37.950;145.008;2023-10-31T09:05:08;101971.79;;;13.12;47.56
54870;BME280;40756;-37.950;145.008;2023-10-31T09:07:38;101972.64;;;11.90;49.54
54870;BME280;40756;-37.950;145.008;2023-10-31T09:10:08;101977.82;;;12.80;48.73
54870;BME280;40756;-37.950;145.008;2023-10-31T09:12:37;101985.82;;;11.92;49.64
54870;BME280;40756;-37.950;145.008;2023-10-31T09:15:07;101982.10;;;13.03;46.64
54870;BME280;40756;-37.950;145.008;2023-10-31T09:17:37;101984.73;;;12.85;46.71
54870;BME280;40756;-37.950;145.008;2023-10-31T09:20:09;101984.10;;;12.80;46.52
54870;BME280;40756;-37.950;145.008;2023-10-31T09:22:38;101985.87;;;12.57;46.72
54870;BME280;40756;-37.950;145.008;2023-10-31T09:25:08;101984.62;;;13.16;45.53
54870;BME280;40756;-37.950;145.008;2023-10-31T09:27:38;101988.16;;;12.88;46.28
54870;BME280;40756;-37.950;145.008;2023-10-31T09:30:09;101990.05;;;12.05;46.99
54870;BME280;40756;-37.950;145.008;2023-10-31T09:32:38;101993.72;;;11.92;47.96
54870;BME280;40756;-37.950;145.008;2023-10-31T09:35:08;101991.68;;;12.87;46.27
54870;BME280;40756;-37.950;145.008;2023-10-31T09:37:39;101994.37;;;12.92;46.35
54870;BME280;40756;-37.950;145.008;2023-10-31T09:40:09;101995.19;;;13.22;45.60
54870;BME280;40756;-37.950;145.008;2023-10-31T09:42:39;101998.94;;;13.60;44.48
54870;BME280;40756;-37.950;145.008;2023-10-31T09:45:09;102000.95;;;12.84;46.29
54870;BME280;40756;-37.950;145.008;2023-10-31T09:47:39;102005.66;;;12.65;45.87
54870;BME280;40756;-37.950;145.008;2023-10-31T09:50:09;102009.86;;;12.65;46.96
54870;BME280;40756;-37.950;145.008;2023-10-31T09:52:39;102014.56;;;13.80;45.49
54870;BME280;40756;-37.950;145.008;2023-10-31T09:55:09;102017.48;;;12.87;46.69
54870;BME280;40756;-37.950;145.008;2023-10-31T09:57:39;102019.25;;;12.83;46.75
54870;BME280;40756;-37.950;145.008;2023-10-31T10:00:10;102024.01;;;13.39;46.87
54870;BME280;40756;-37.950;145.008;2023-10-31T10:02:40;102032.91;;;13.33;46.28
54870;BME280;40756;-37.950;145.008;2023-10-31T10:05:11;102029.07;;;13.24;46.05
54870;BME280;40756;-37.950;145.008;2023-10-31T10:07:43;102032.74;;;13.17;46.46
54870;BME280;40756;-37.950;145.008;2023-10-31T10:10:14;102032.50;;;12.88;47.09
54870;BME280;40756;-37.950;145.008;2023-10-31T10:12:44;102037.96;;;13.13;47.19
54870;BME280;40756;-37.950;145.008;2023-10-31T10:15:13;102044.61;;;12.61;48.18
54870;BME280;40756;-37.950;145.008;2023-10-31T10:17:50;102048.36;;;13.06;48.37
54870;BME280;40756;-37.950;145.008;2023-10-31T10:20:20;102048.32;;;13.40;47.99
54870;BME280;40756;-37.950;145.008;2023-10-31T10:22:50;102055.20;;;12.92;47.81
54870;BME280;40756;-37.950;145.008;2023-10-31T10:25:20;102055.43;;;13.92;47.02
54870;BME280;40756;-37.950;145.008;2023-10-31T10:27:50;102058.95;;;13.18;48.65
54870;BME280;40756;-37.950;145.008;2023-10-31T10:30:20;102062.05;;;13.05;47.95
54870;BME280;40756;-37.950;145.008;2023-10-31T10:32:51;102064.29;;;13.57;46.29
54870;BME280;40756;-37.950;145.008;2023-10-31T10:35:21;102062.32;;;12.67;47.69
54870;BME280;40756;-37.950;145.008;2023-10-31T10:37:53;102063.81;;;12.17;48.01
54870;BME280;40756;-37.950;145.008;2023-10-31T10:40:24;102064.86;;;12.78;48.15
54870;BME280;40756;-37.950;145.008;2023-10-31T10:42:58;102069.07;;;13.43;47.69
54870;BME280;40756;-37.950;145.008;2023-10-31T10:45:28;102066.61;;;12.52;49.03
54870;BME280;40756;-37.950;145.008;2023-10-31T10:47:59;102070.22;;;13.73;47.50
54870;BME280;40756;-37.950;145.008;2023-10-31T10:50:32;102071.61;;;13.50;46.17
54870;BME280;40756;-37.950;145.008;2023-10-31T10:53:10;102075.23;;;12.66;46.85
54870;BME280;40756;-37.950;145.008;2023-10-31T10:55:48;102073.71;;;13.56;45.73
54870;BME280;40756;-37.950;145.008;2023-10-31T10:58:26;102075.38;;;12.80;46.86
54870;BME280;40756;-37.950;145.008;2023-10-31T11:00:58;102079.84;;;13.36;46.39
54870;BME280;40756;-37.950;145.008;2023-10-31T11:03:29;102081.67;;;13.17;46.13
54870;BME280;40756;-37.950;145.008;2023-10-31T11:05:58;102081.00;;;13.12;45.18
54870;BME280;40756;-37.950;145.008;2023-10-31T11:08:29;102083.65;;;13.85;45.62
54870;BME280;40756;-37.950;145.008;2023-10-31T11:10:59;102079.15;;;12.82;45.75
54870;BME280;40756;-37.950;145.008;2023-10-31T11:13:29;102080.23;;;12.52;44.98
54870;BME280;40756;-37.950;145.008;2023-10-31T11:16:04;102082.66;;;12.76;46.15
54870;BME280;40756;-37.950;145.008;2023-10-31T11:18:35;102092.39;;;12.03;47.59
54870;BME280;40756;-37.950;145.008;2023-10-31T11:21:06;102090.51;;;11.73;48.73
54870;BME280;40756;-37.950;145.008;2023-10-31T11:23:37;102092.10;;;11.46;49.49
54870;BME280;40756;-37.950;145.008;2023-10-31T11:26:08;102093.44;;;11.68;50.41
54870;BME280;40756;-37.950;145.008;2023-10-31T11:28:38;102092.00;;;12.60;48.36
54870;BME280;40756;-37.950;145.008;2023-10-31T11:31:09;102091.71;;;12.54;49.08
54870;BME280;40756;-37.950;145.008;2023-10-31T11:33:41;102094.94;;;12.49;47.59
54870;BME280;40756;-37.950;145.008;2023-10-31T11:36:12;102088.28;;;13.02;46.23
54870;BME280;40756;-37.950;145.008;2023-10-31T11:38:41;102088.02;;;12.60;47.39
54870;BME280;40756;-37.950;145.008;2023-10-31T11:41:11;102088.54;;;12.53;47.92
54870;BME280;40756;-37.950;145.008;2023-10-31T11:43:56;102089.70;;;12.34;48.00
54870;BME280;40756;-37.950;145.008;2023-10-31T11:46:26;102090.87;;;13.25;45.81
54870;BME280;40756;-37.950;145.008;2023-10-31T11:48:56;102090.78;;;12.88;46.50
54870;BME280;40756;-37.950;145.008;2023-10-31T11:51:26;102084.46;;;12.80;46.78
54870;BME280;40756;-37.950;145.008;2023-10-31T11:53:55;102083.17;;;12.63;47.79
54870;BME280;40756;-37.950;145.008;2023-10-31T11:56:25;102087.54;;;12.48;48.17
54870;BME280;40756;-37.950;145.008;2023-10-31T11:59:01;102088.61;;;12.39;46.94
54870;BME280;40756;-37.950;145.008;2023-10-31T12:01:31;102086.56;;;12.46;46.52
54870;BME280;40756;-37.950;145.008;2023-10-31T12:04:06;102088.45;;;12.58;46.39
54870;BME280;40756;-37.950;145.008;2023-10-31T12:06:35;102087.15;;;12.55;45.69
54870;BME280;40756;-37.950;145.008;2023-10-31T12:09:04;102086.52;;;11.97;47.10
54870;BME280;40756;-37.950;145.008;2023-10-31T12:11:37;102082.37;;;12.60;45.98
54870;BME280;40756;-37.950;145.008;2023-10-31T12:14:19;102087.52;;;12.43;45.72
54870;BME280;40756;-37.950;145.008;2023-10-31T12:16:48;102083.86;;;12.61;45.05
54870;BME280;40756;-37.950;145.008;2023-10-31T12:19:22;102086.05;;;11.91;46.31
54870;BME280;40756;-37.950;145.008;2023-10-31T12:21:52;102086.38;;;12.48;45.08
54870;BME280;40756;-37.950;145.008;2023-10-31T12:24:22;102085.25;;;12.23;46.09
54870;BME280;40756;-37.950;145.008;2023-10-31T12:26:51;102082.93;;;12.85;44.78
54870;BME280;40756;-37.950;145.008;2023-10-31T12:29:22;102084.93;;;12.01;43.48
54870;BME280;40756;-37.950;145.008;2023-10-31T12:31:52;102090.23;;;12.89;43.30
54870;BME280;40756;-37.950;145.008;2023-10-31T12:34:23;102094.06;;;13.13;43.62